Gilchrist, Oregon
Current Conditions -  °F | °C
As of 11:15 AM on Thursday 27 Nov 2014 (Local Time) from KBDN Reporting Station
Clear Clear  
Wind Chill: 42°   Ceiling: Unl
Heat Index: 48°   Visibility: 10mi
Dew Point: 41°   Wind: 15mph
Humidity: 76%   Direction: 230°SW
Pressure: 30.03"   Gusts: 28mph
Location:  43.48°N, 121.69°W
Report Text: KBDN 271915Z AUTO 23013G24KT 10SM CLR 09/05 A3003 RMK AO2
Loading
Personal Weather Stations






























Interactive Weather Map New forecast layout! Learn more

10-Day Weather Forecast

Advertisements
Track Severe Weather on mobile